sensor_id;sensor_type;location;lat;lon;timestamp;temperature;humidity
45729;DHT22;31439;53.512;10.206;2023-04-24T00:00:34;13.70;99.90
45729;DHT22;31439;53.512;10.206;2023-04-24T00:03:01;13.70;99.90
45729;DHT22;31439;53.512;10.206;2023-04-24T00:05:28;13.80;99.90
45729;DHT22;31439;53.512;10.206;2023-04-24T00:07:54;13.70;99.90
45729;DHT22;31439;53.512;10.206;2023-04-24T00:10:20;13.70;99.90
45729;DHT22;31439;53.512;10.206;2023-04-24T00:12:46;13.60;99.90
45729;DHT22;31439;53.512;10.206;2023-04-24T00:15:12;13.60;99.90
45729;DHT22;31439;53.512;10.206;2023-04-24T00:17:37;13.60;99.90
45729;DHT22;31439;53.512;10.206;2023-04-24T00:20:04;13.60;99.90
45729;DHT22;31439;53.512;10.206;2023-04-24T00:22:32;13.60;99.90
45729;DHT22;31439;53.512;10.206;2023-04-24T00:24:58;13.60;99.90
45729;DHT22;31439;53.512;10.206;2023-04-24T00:27:23;13.60;99.90
45729;DHT22;31439;53.512;10.206;2023-04-24T00:29:49;13.50;99.90
45729;DHT22;31439;53.512;10.206;2023-04-24T00:32:15;13.60;99.90
45729;DHT22;31439;53.512;10.206;2023-04-24T00:34:41;13.50;99.90
45729;DHT22;31439;53.512;10.206;2023-04-24T00:37:07;13.50;99.90
45729;DHT22;31439;53.512;10.206;2023-04-24T00:39:32;13.50;99.90
45729;DHT22;31439;53.512;10.206;2023-04-24T00:41:58;13.50;99.90
45729;DHT22;31439;53.512;10.206;2023-04-24T00:44:25;13.50;99.90
45729;DHT22;31439;53.512;10.206;2023-04-24T00:46:50;13.50;99.90
45729;DHT22;31439;53.512;10.206;2023-04-24T00:49:20;13.40;99.90
45729;DHT22;31439;53.512;10.206;2023-04-24T00:51:46;13.40;99.90
45729;DHT22;31439;53.512;10.206;2023-04-24T00:54:13;13.40;99.90
45729;DHT22;31439;53.512;10.206;2023-04-24T00:56:40;13.40;99.90
45729;DHT22;31439;53.512;10.206;2023-04-24T00:59:06;13.30;99.90
45729;DHT22;31439;53.512;10.206;2023-04-24T01:01:32;13.40;99.90
45729;DHT22;31439;53.512;10.206;2023-04-24T01:03:58;13.30;99.90
45729;DHT22;31439;53.512;10.206;2023-04-24T01:06:28;13.30;99.90
45729;DHT22;31439;53.512;10.206;2023-04-24T01:08:54;13.40;99.90
45729;DHT22;31439;53.512;10.206;2023-04-24T01:11:21;13.40;99.90
45729;DHT22;31439;53.512;10.206;2023-04-24T01:13:47;13.40;99.90
45729;DHT22;31439;53.512;10.206;2023-04-24T01:16:14;13.40;99.90
45729;DHT22;31439;53.512;10.206;2023-04-24T01:18:40;13.30;99.90
45729;DHT22;31439;53.512;10.206;2023-04-24T01:21:08;13.30;99.90
45729;DHT22;31439;53.512;10.206;2023-04-24T01:23:33;13.30;99.90
45729;DHT22;31439;53.512;10.206;2023-04-24T01:26:00;13.30;99.90
45729;DHT22;31439;53.512;10.206;2023-04-24T01:28:26;13.20;99.90
45729;DHT22;31439;53.512;10.206;2023-04-24T01:30:52;13.20;99.90
45729;DHT22;31439;53.512;10.206;2023-04-24T01:33:20;13.20;99.90
45729;DHT22;31439;53.512;10.206;2023-04-24T01:35:46;13.20;99.90
45729;DHT22;31439;53.512;10.206;2023-04-24T01:38:12;13.20;99.90
45729;DHT22;31439;53.512;10.206;2023-04-24T01:40:38;13.20;99.90
45729;DHT22;31439;53.512;10.206;2023-04-24T01:43:04;13.10;99.90
45729;DHT22;31439;53.512;10.206;2023-04-24T01:45:29;13.20;99.90
45729;DHT22;31439;53.512;10.206;2023-04-24T01:47:55;13.10;99.90
45729;DHT22;31439;53.512;10.206;2023-04-24T01:50:21;13.20;99.90
45729;DHT22;31439;53.512;10.206;2023-04-24T01:52:47;13.10;99.90
45729;DHT22;31439;53.512;10.206;2023-04-24T01:55:12;13.10;99.90
45729;DHT22;31439;53.512;10.206;2023-04-24T01:57:38;13.10;99.90
45729;DHT22;31439;53.512;10.206;2023-04-24T02:00:05;13.00;99.90
45729;DHT22;31439;53.512;10.206;2023-04-24T02:02:32;13.00;99.90
45729;DHT22;31439;53.512;10.206;2023-04-24T02:04:58;13.00;99.90
45729;DHT22;31439;53.512;10.206;2023-04-24T02:07:23;13.00;99.90
45729;DHT22;31439;53.512;10.206;2023-04-24T02:09:49;13.00;99.90
45729;DHT22;31439;53.512;10.206;2023-04-24T02:12:16;13.00;99.90
45729;DHT22;31439;53.512;10.206;2023-04-24T02:14:43;13.00;99.90
45729;DHT22;31439;53.512;10.206;2023-04-24T02:17:08;12.90;99.90
45729;DHT22;31439;53.512;10.206;2023-04-24T02:19:34;12.80;99.90
45729;DHT22;31439;53.512;10.206;2023-04-24T02:22:00;13.00;99.90
45729;DHT22;31439;53.512;10.206;2023-04-24T02:24:25;12.90;99.90
45729;DHT22;31439;53.512;10.206;2023-04-24T02:26:51;12.90;99.90
45729;DHT22;31439;53.512;10.206;2023-04-24T02:29:16;12.80;99.90
45729;DHT22;31439;53.512;10.206;2023-04-24T02:31:43;12.70;99.90
45729;DHT22;31439;53.512;10.206;2023-04-24T02:34:09;12.70;99.90
45729;DHT22;31439;53.512;10.206;2023-04-24T02:36:34;12.70;99.90
45729;DHT22;31439;53.512;10.206;2023-04-24T02:39:00;12.70;99.90
45729;DHT22;31439;53.512;10.206;2023-04-24T02:41:26;12.60;99.90
45729;DHT22;31439;53.512;10.206;2023-04-24T02:43:57;12.60;99.90
45729;DHT22;31439;53.512;10.206;2023-04-24T02:46:23;12.60;99.90
45729;DHT22;31439;53.512;10.206;2023-04-24T02:48:48;12.60;99.90
45729;DHT22;31439;53.512;10.206;2023-04-24T02:51:14;12.50;99.90
45729;DHT22;31439;53.512;10.206;2023-04-24T02:53:39;12.50;99.90
45729;DHT22;31439;53.512;10.206;2023-04-24T02:56:06;12.50;99.90
45729;DHT22;31439;53.512;10.206;2023-04-24T02:58:31;12.50;99.90
45729;DHT22;31439;53.512;10.206;2023-04-24T03:00:57;12.50;99.90
45729;DHT22;31439;53.512;10.206;2023-04-24T03:03:22;12.50;99.90
45729;DHT22;31439;53.512;10.206;2023-04-24T03:05:49;12.40;99.90
45729;DHT22;31439;53.512;10.206;2023-04-24T03:08:14;12.40;99.90
45729;DHT22;31439;53.512;10.206;2023-04-24T03:10:40;12.50;99.90
45729;DHT22;31439;53.512;10.206;2023-04-24T03:13:06;12.40;99.90
45729;DHT22;31439;53.512;10.206;2023-04-24T03:15:31;12.40;99.90
45729;DHT22;31439;53.512;10.206;2023-04-24T03:17:57;12.40;99.90
45729;DHT22;31439;53.512;10.206;2023-04-24T03:20:23;12.40;99.90
45729;DHT22;31439;53.512;10.206;2023-04-24T03:22:48;12.30;99.90
45729;DHT22;31439;53.512;10.206;2023-04-24T03:25:14;12.30;99.90
45729;DHT22;31439;53.512;10.206;2023-04-24T03:27:40;12.30;99.90
45729;DHT22;31439;53.512;10.206;2023-04-24T03:30:08;12.30;99.90
45729;DHT22;31439;53.512;10.206;2023-04-24T03:32:34;12.30;99.90
45729;DHT22;31439;53.512;10.206;2023-04-24T03:34:59;12.30;99.90
45729;DHT22;31439;53.512;10.206;2023-04-24T03:37:26;12.30;99.90
45729;DHT22;31439;53.512;10.206;2023-04-24T03:39:52;12.30;99.90
45729;DHT22;31439;53.512;10.206;2023-04-24T03:42:17;12.30;99.90
45729;DHT22;31439;53.512;10.206;2023-04-24T03:44:43;12.30;99.90
45729;DHT22;31439;53.512;10.206;2023-04-24T03:47:09;12.30;99.90
45729;DHT22;31439;53.512;10.206;2023-04-24T03:49:34;12.30;99.90
45729;DHT22;31439;53.512;10.206;2023-04-24T03:52:00;12.30;99.90
45729;DHT22;31439;53.512;10.206;2023-04-24T03:54:26;12.20;99.90
45729;DHT22;31439;53.512;10.206;2023-04-24T03:56:52;12.20;99.90
45729;DHT22;31439;53.512;10.206;2023-04-24T03:59:17;12.10;99.90
45729;DHT22;31439;53.512;10.206;2023-04-24T04:01:43;12.10;99.90
45729;DHT22;31439;53.512;10.206;2023-04-24T04:04:08;12.10;99.90
45729;DHT22;31439;53.512;10.206;2023-04-24T04:06:34;12.10;99.90
45729;DHT22;31439;53.512;10.206;2023-04-24T04:09:01;12.10;99.90
45729;DHT22;31439;53.512;10.206;2023-04-24T04:11:27;12.10;99.90
45729;DHT22;31439;53.512;10.206;2023-04-24T04:13:52;12.10;99.90
45729;DHT22;31439;53.512;10.206;2023-04-24T04:16:18;11.90;99.90
45729;DHT22;31439;53.512;10.206;2023-04-24T04:18:44;12.00;99.90
45729;DHT22;31439;53.512;10.206;2023-04-24T04:21:11;11.90;99.90
45729;DHT22;31439;53.512;10.206;2023-04-24T04:23:36;11.90;99.90
45729;DHT22;31439;53.512;10.206;2023-04-24T04:26:03;11.80;99.90
45729;DHT22;31439;53.512;10.206;2023-04-24T04:28:29;11.90;99.90
45729;DHT22;31439;53.512;10.206;2023-04-24T04:30:57;11.90;99.90
45729;DHT22;31439;53.512;10.206;2023-04-24T04:33:23;11.90;99.90
45729;DHT22;31439;53.512;10.206;2023-04-24T04:35:49;11.80;99.90
45729;DHT22;31439;53.512;10.206;2023-04-24T04:38:17;11.80;99.90
45729;DHT22;31439;53.512;10.206;2023-04-24T04:40:44;11.90;99.90
45729;DHT22;31439;53.512;10.206;2023-04-24T04:43:10;11.90;99.90
45729;DHT22;31439;53.512;10.206;2023-04-24T04:45:36;11.90;99.90
45729;DHT22;31439;53.512;10.206;2023-04-24T04:48:04;11.90;99.90
45729;DHT22;31439;53.512;10.206;2023-04-24T04:50:30;11.90;99.90
45729;DHT22;31439;53.512;10.206;2023-04-24T04:52:55;11.90;99.90
45729;DHT22;31439;53.512;10.206;2023-04-24T04:55:21;11.80;99.90
45729;DHT22;31439;53.512;10.206;2023-04-24T04:57:47;11.90;99.90
45729;DHT22;31439;53.512;10.206;2023-04-24T05:00:13;11.90;99.90
45729;DHT22;31439;53.512;10.206;2023-04-24T05:02:39;11.90;99.90
45729;DHT22;31439;53.512;10.206;2023-04-24T05:05:06;12.00;99.90
45729;DHT22;31439;53.512;10.206;2023-04-24T05:07:32;12.00;99.90
45729;DHT22;31439;53.512;10.206;2023-04-24T05:09:58;12.00;99.90
45729;DHT22;31439;53.512;10.206;2023-04-24T05:12:24;12.00;99.90
45729;DHT22;31439;53.512;10.206;2023-04-24T05:14:49;12.10;99.90
45729;DHT22;31439;53.512;10.206;2023-04-24T05:17:15;12.10;99.90
45729;DHT22;31439;53.512;10.206;2023-04-24T05:19:41;12.10;99.90
45729;DHT22;31439;53.512;10.206;2023-04-24T05:22:07;12.10;99.90
45729;DHT22;31439;53.512;10.206;2023-04-24T05:24:33;12.20;99.90
45729;DHT22;31439;53.512;10.206;2023-04-24T05:27:00;12.20;99.90
45729;DHT22;31439;53.512;10.206;2023-04-24T05:29:25;12.20;99.90
45729;DHT22;31439;53.512;10.206;2023-04-24T05:31:52;12.20;99.90
45729;DHT22;31439;53.512;10.206;2023-04-24T05:34:17;12.20;99.90
45729;DHT22;31439;53.512;10.206;2023-04-24T05:36:43;12.20;99.90
45729;DHT22;31439;53.512;10.206;2023-04-24T05:39:09;12.20;99.90
45729;DHT22;31439;53.512;10.206;2023-04-24T05:41:35;12.20;99.90
45729;DHT22;31439;53.512;10.206;2023-04-24T05:44:00;12.20;99.90
45729;DHT22;31439;53.512;10.206;2023-04-24T05:46:26;12.30;99.90
45729;DHT22;31439;53.512;10.206;2023-04-24T05:48:52;12.30;99.90
45729;DHT22;31439;53.512;10.206;2023-04-24T05:51:17;12.40;99.90
45729;DHT22;31439;53.512;10.206;2023-04-24T05:53:43;12.40;99.90
45729;DHT22;31439;53.512;10.206;2023-04-24T05:56:09;13.00;99.90
45729;DHT22;31439;53.512;10.206;2023-04-24T05:58:35;12.90;99.90
45729;DHT22;31439;53.512;10.206;2023-04-24T06:01:00;13.00;99.90
45729;DHT22;31439;53.512;10.206;2023-04-24T06:03:27;13.30;99.90
45729;DHT22;31439;53.512;10.206;2023-04-24T06:05:53;13.20;99.90
45729;DHT22;31439;53.512;10.206;2023-04-24T06:08:18;12.90;99.90
45729;DHT22;31439;53.512;10.206;2023-04-24T06:10:44;12.70;99.90
45729;DHT22;31439;53.512;10.206;2023-04-24T06:13:10;12.70;99.90
45729;DHT22;31439;53.512;10.206;2023-04-24T06:15:36;12.60;99.90
45729;DHT22;31439;53.512;10.206;2023-04-24T06:18:03;12.60;99.90
45729;DHT22;31439;53.512;10.206;2023-04-24T06:20:28;12.60;99.90
45729;DHT22;31439;53.512;10.206;2023-04-24T06:22:54;12.60;99.90
45729;DHT22;31439;53.512;10.206;2023-04-24T06:25:20;12.60;99.90
45729;DHT22;31439;53.512;10.206;2023-04-24T06:27:46;12.60;99.90
45729;DHT22;31439;53.512;10.206;2023-04-24T06:30:12;12.60;99.90
45729;DHT22;31439;53.512;10.206;2023-04-24T06:32:37;12.60;99.90
45729;DHT22;31439;53.512;10.206;2023-04-24T06:35:04;12.60;99.90
45729;DHT22;31439;53.512;10.206;2023-04-24T06:37:30;12.60;99.90
45729;DHT22;31439;53.512;10.206;2023-04-24T06:39:55;12.60;99.90
45729;DHT22;31439;53.512;10.206;2023-04-24T06:42:21;12.60;99.90
45729;DHT22;31439;53.512;10.206;2023-04-24T06:44:47;12.60;99.90
45729;DHT22;31439;53.512;10.206;2023-04-24T06:47:13;12.60;99.90
45729;DHT22;31439;53.512;10.206;2023-04-24T06:49:39;12.60;99.90
45729;DHT22;31439;53.512;10.206;2023-04-24T06:52:05;12.70;99.90
45729;DHT22;31439;53.512;10.206;2023-04-24T06:54:31;12.70;99.90
45729;DHT22;31439;53.512;10.206;2023-04-24T06:56:57;12.70;99.90
45729;DHT22;31439;53.512;10.206;2023-04-24T06:59:24;12.70;99.90
45729;DHT22;31439;53.512;10.206;2023-04-24T07:01:50;12.70;99.90
45729;DHT22;31439;53.512;10.206;2023-04-24T07:04:16;12.80;99.90
45729;DHT22;31439;53.512;10.206;2023-04-24T07:06:43;12.90;99.90
45729;DHT22;31439;53.512;10.206;2023-04-24T07:09:08;13.00;99.90
45729;DHT22;31439;53.512;10.206;2023-04-24T07:11:35;13.10;99.90
45729;DHT22;31439;53.512;10.206;2023-04-24T07:14:02;13.10;99.90
45729;DHT22;31439;53.512;10.206;2023-04-24T07:16:28;13.10;99.90
45729;DHT22;31439;53.512;10.206;2023-04-24T07:18:53;13.10;99.90
45729;DHT22;31439;53.512;10.206;2023-04-24T07:21:19;13.10;99.90
45729;DHT22;31439;53.512;10.206;2023-04-24T07:23:45;13.10;99.90
45729;DHT22;31439;53.512;10.206;2023-04-24T07:26:10;13.30;99.90
45729;DHT22;31439;53.512;10.206;2023-04-24T07:28:36;13.50;99.90
45729;DHT22;31439;53.512;10.206;2023-04-24T07:31:01;13.50;99.90
45729;DHT22;31439;53.512;10.206;2023-04-24T07:33:27;13.50;99.90
45729;DHT22;31439;53.512;10.206;2023-04-24T07:35:53;13.60;99.90
45729;DHT22;31439;53.512;10.206;2023-04-24T07:38:19;13.50;99.90
45729;DHT22;31439;53.512;10.206;2023-04-24T07:40:47;13.60;99.90
45729;DHT22;31439;53.512;10.206;2023-04-24T07:43:13;13.50;99.90
45729;DHT22;31439;53.512;10.206;2023-04-24T07:45:39;13.50;99.90
45729;DHT22;31439;53.512;10.206;2023-04-24T07:48:05;13.40;99.90
45729;DHT22;31439;53.512;10.206;2023-04-24T07:50:31;13.40;99.90
45729;DHT22;31439;53.512;10.206;2023-04-24T07:52:56;13.40;99.90
45729;DHT22;31439;53.512;10.206;2023-04-24T07:55:22;13.50;99.90
45729;DHT22;31439;53.512;10.206;2023-04-24T07:57:48;13.50;99.90
45729;DHT22;31439;53.512;10.206;2023-04-24T08:00:14;13.50;99.90
45729;DHT22;31439;53.512;10.206;2023-04-24T08:02:40;13.60;99.90
45729;DHT22;31439;53.512;10.206;2023-04-24T08:05:06;13.60;99.90
45729;DHT22;31439;53.512;10.206;2023-04-24T08:07:32;13.60;99.90
45729;DHT22;31439;53.512;10.206;2023-04-24T08:09:58;13.60;99.90
45729;DHT22;31439;53.512;10.206;2023-04-24T08:12:24;13.60;99.90
45729;DHT22;31439;53.512;10.206;2023-04-24T08:14:50;13.50;99.90
45729;DHT22;31439;53.512;10.206;2023-04-24T08:17:17;13.40;99.90
45729;DHT22;31439;53.512;10.206;2023-04-24T08:19:42;13.50;99.90
45729;DHT22;31439;53.512;10.206;2023-04-24T08:22:13;13.50;99.90
45729;DHT22;31439;53.512;10.206;2023-04-24T08:24:38;13.60;99.90
45729;DHT22;31439;53.512;10.206;2023-04-24T08:27:05;13.60;99.90
45729;DHT22;31439;53.512;10.206;2023-04-24T08:29:31;13.70;99.90
45729;DHT22;31439;53.512;10.206;2023-04-24T08:31:57;13.60;99.90
45729;DHT22;31439;53.512;10.206;2023-04-24T08:34:23;13.40;99.90
45729;DHT22;31439;53.512;10.206;2023-04-24T08:36:48;13.50;99.90
45729;DHT22;31439;53.512;10.206;2023-04-24T08:39:14;13.50;99.90
45729;DHT22;31439;53.512;10.206;2023-04-24T08:41:42;13.60;99.90
45729;DHT22;31439;53.512;10.206;2023-04-24T08:44:12;13.60;99.90
45729;DHT22;31439;53.512;10.206;2023-04-24T08:46:39;13.70;99.90
45729;DHT22;31439;53.512;10.206;2023-04-24T08:49:06;13.90;99.90
45729;DHT22;31439;53.512;10.206;2023-04-24T08:51:31;14.00;99.90
45729;DHT22;31439;53.512;10.206;2023-04-24T08:53:58;14.00;99.90
45729;DHT22;31439;53.512;10.206;2023-04-24T08:56:24;14.00;99.90
45729;DHT22;31439;53.512;10.206;2023-04-24T08:58:53;13.90;99.90
45729;DHT22;31439;53.512;10.206;2023-04-24T09:01:20;13.90;99.90
45729;DHT22;31439;53.512;10.206;2023-04-24T09:03:48;13.80;99.90
45729;DHT22;31439;53.512;10.206;2023-04-24T09:06:16;14.00;99.90
45729;DHT22;31439;53.512;10.206;2023-04-24T09:08:43;14.10;99.90
45729;DHT22;31439;53.512;10.206;2023-04-24T09:11:11;14.10;99.90
45729;DHT22;31439;53.512;10.206;2023-04-24T09:13:37;14.10;99.90
45729;DHT22;31439;53.512;10.206;2023-04-24T09:16:03;13.90;99.90
45729;DHT22;31439;53.512;10.206;2023-04-24T09:18:29;13.80;99.90
45729;DHT22;31439;53.512;10.206;2023-04-24T09:21:03;13.60;99.90
45729;DHT22;31439;53.512;10.206;2023-04-24T09:23:32;13.60;99.90
45729;DHT22;31439;53.512;10.206;2023-04-24T09:25:59;13.50;99.90
45729;DHT22;31439;53.512;10.206;2023-04-24T09:28:29;13.40;99.90
45729;DHT22;31439;53.512;10.206;2023-04-24T09:33:29;13.50;99.90
45729;DHT22;31439;53.512;10.206;2023-04-24T09:35:55;13.60;99.90
45729;DHT22;31439;53.512;10.206;2023-04-24T09:38:34;13.70;99.90
45729;DHT22;31439;53.512;10.206;2023-04-24T09:41:01;13.60;99.90
45729;DHT22;31439;53.512;10.206;2023-04-24T09:46:09;13.60;99.90
45729;DHT22;31439;53.512;10.206;2023-04-24T09:48:36;13.60;99.90
45729;DHT22;31439;53.512;10.206;2023-04-24T09:51:04;13.70;99.90
45729;DHT22;31439;53.512;10.206;2023-04-24T09:53:32;13.70;99.90
45729;DHT22;31439;53.512;10.206;2023-04-24T09:56:16;13.70;99.90
45729;DHT22;31439;53.512;10.206;2023-04-24T09:58:41;13.70;99.90
45729;DHT22;31439;53.512;10.206;2023-04-24T10:01:07;13.70;99.90
45729;DHT22;31439;53.512;10.206;2023-04-24T10:03:35;13.80;99.90
45729;DHT22;31439;53.512;10.206;2023-04-24T10:06:02;13.70;99.90
45729;DHT22;31439;53.512;10.206;2023-04-24T10:08:33;13.70;99.90
45729;DHT22;31439;53.512;10.206;2023-04-24T10:11:00;13.70;99.90
45729;DHT22;31439;53.512;10.206;2023-04-24T10:13:26;13.80;99.90
45729;DHT22;31439;53.512;10.206;2023-04-24T10:15:53;14.00;99.90
45729;DHT22;31439;53.512;10.206;2023-04-24T10:18:20;14.00;99.90
45729;DHT22;31439;53.512;10.206;2023-04-24T10:20:47;14.00;99.90
45729;DHT22;31439;53.512;10.206;2023-04-24T10:23:13;14.10;99.90
45729;DHT22;31439;53.512;10.206;2023-04-24T10:25:38;14.10;99.90
45729;DHT22;31439;53.512;10.206;2023-04-24T10:28:07;14.10;99.90
45729;DHT22;31439;53.512;10.206;2023-04-24T10:30:36;14.10;99.90
45729;DHT22;31439;53.512;10.206;2023-04-24T10:33:06;14.00;99.90
45729;DHT22;31439;53.512;10.206;2023-04-24T10:35:38;14.00;99.90
45729;DHT22;31439;53.512;10.206;2023-04-24T10:38:15;14.00;99.90
45729;DHT22;31439;53.512;10.206;2023-04-24T10:40:42;13.90;99.90
45729;DHT22;31439;53.512;10.206;2023-04-24T10:43:09;13.80;99.90
45729;DHT22;31439;53.512;10.206;2023-04-24T10:45:38;13.80;99.90
45729;DHT22;31439;53.512;10.206;2023-04-24T10:48:06;13.80;99.90
45729;DHT22;31439;53.512;10.206;2023-04-24T10:50:43;13.70;99.90
45729;DHT22;31439;53.512;10.206;2023-04-24T10:53:18;13.60;99.90
45729;DHT22;31439;53.512;10.206;2023-04-24T10:58:09;13.70;99.90
45729;DHT22;31439;53.512;10.206;2023-04-24T11:00:40;13.90;99.90
45729;DHT22;31439;53.512;10.206;2023-04-24T11:03:13;13.90;99.90
45729;DHT22;31439;53.512;10.206;2023-04-24T11:05:56;14.10;99.90
45729;DHT22;31439;53.512;10.206;2023-04-24T11:08:27;14.20;99.90
45729;DHT22;31439;53.512;10.206;2023-04-24T11:13:25;14.20;99.90
45729;DHT22;31439;53.512;10.206;2023-04-24T11:18:39;14.20;99.90
45729;DHT22;31439;53.512;10.206;2023-04-24T11:21:12;14.30;99.90
45729;DHT22;31439;53.512;10.206;2023-04-24T11:23:39;14.30;99.90
45729;DHT22;31439;53.512;10.206;2023-04-24T11:26:31;14.40;99.90
45729;DHT22;31439;53.512;10.206;2023-04-24T11:29:08;14.40;99.90
45729;DHT22;31439;53.512;10.206;2023-04-24T11:31:38;14.40;99.90
45729;DHT22;31439;53.512;10.206;2023-04-24T11:34:12;14.40;99.90
45729;DHT22;31439;53.512;10.206;2023-04-24T11:36:39;14.30;99.90
45729;DHT22;31439;53.512;10.206;2023-04-24T11:39:06;14.50;99.90
45729;DHT22;31439;53.512;10.206;2023-04-24T11:41:33;14.70;99.90
45729;DHT22;31439;53.512;10.206;2023-04-24T11:43:59;14.70;99.90
45729;DHT22;31439;53.512;10.206;2023-04-24T11:46:28;14.60;99.90
45729;DHT22;31439;53.512;10.206;2023-04-24T11:48:54;14.50;99.90
45729;DHT22;31439;53.512;10.206;2023-04-24T11:51:20;14.50;99.90
45729;DHT22;31439;53.512;10.206;2023-04-24T11:53:45;14.60;99.90
45729;DHT22;31439;53.512;10.206;2023-04-24T11:56:11;14.60;99.90
45729;DHT22;31439;53.512;10.206;2023-04-24T11:58:38;14.50;99.90
45729;DHT22;31439;53.512;10.206;2023-04-24T12:01:04;14.50;99.90
45729;DHT22;31439;53.512;10.206;2023-04-24T12:03:31;14.50;99.90
45729;DHT22;31439;53.512;10.206;2023-04-24T12:06:10;14.50;99.90
45729;DHT22;31439;53.512;10.206;2023-04-24T12:08:36;14.80;99.90
45729;DHT22;31439;53.512;10.206;2023-04-24T12:11:03;14.90;99.90
45729;DHT22;31439;53.512;10.206;2023-04-24T12:13:30;14.90;99.90
45729;DHT22;31439;53.512;10.206;2023-04-24T12:15:59;14.90;99.90
45729;DHT22;31439;53.512;10.206;2023-04-24T12:18:25;14.80;99.90
45729;DHT22;31439;53.512;10.206;2023-04-24T12:20:51;14.80;99.90
45729;DHT22;31439;53.512;10.206;2023-04-24T12:23:33;14.70;99.90
45729;DHT22;31439;53.512;10.206;2023-04-24T12:26:01;14.70;99.90
45729;DHT22;31439;53.512;10.206;2023-04-24T12:28:38;14.70;99.90
45729;DHT22;31439;53.512;10.206;2023-04-24T12:31:04;14.70;99.90
45729;DHT22;31439;53.512;10.206;2023-04-24T12:33:35;14.60;99.90
45729;DHT22;31439;53.512;10.206;2023-04-24T12:36:01;14.60;99.90
45729;DHT22;31439;53.512;10.206;2023-04-24T12:38:28;14.70;99.90
45729;DHT22;31439;53.512;10.206;2023-04-24T12:41:09;14.70;99.90
45729;DHT22;31439;53.512;10.206;2023-04-24T12:43:36;14.60;99.90
45729;DHT22;31439;53.512;10.206;2023-04-24T12:46:02;14.40;99.90
45729;DHT22;31439;53.512;10.206;2023-04-24T12:48:28;14.20;99.90
45729;DHT22;31439;53.512;10.206;2023-04-24T12:50:57;14.10;99.90
45729;DHT22;31439;53.512;10.206;2023-04-24T12:53:26;14.00;99.90
45729;DHT22;31439;53.512;10.206;2023-04-24T12:55:52;13.90;99.90
45729;DHT22;31439;53.512;10.206;2023-04-24T12:58:21;13.90;99.90
45729;DHT22;31439;53.512;10.206;2023-04-24T13:00:47;13.80;99.90
45729;DHT22;31439;53.512;10.206;2023-04-24T13:03:13;13.70;99.90
45729;DHT22;31439;53.512;10.206;2023-04-24T13:05:39;13.70;99.90
45729;DHT22;31439;53.512;10.206;2023-04-24T13:08:05;13.60;99.90
45729;DHT22;31439;53.512;10.206;2023-04-24T13:10:31;13.50;99.90
45729;DHT22;31439;53.512;10.206;2023-04-24T13:12:57;13.50;99.90
45729;DHT22;31439;53.512;10.206;2023-04-24T13:15:22;13.60;99.90
45729;DHT22;31439;53.512;10.206;2023-04-24T13:17:49;13.50;99.90
45729;DHT22;31439;53.512;10.206;2023-04-24T13:20:14;13.60;99.90
45729;DHT22;31439;53.512;10.206;2023-04-24T13:22:40;13.50;99.90
45729;DHT22;31439;53.512;10.206;2023-04-24T13:25:06;13.50;99.90
45729;DHT22;31439;53.512;10.206;2023-04-24T13:27:32;13.50;99.90
45729;DHT22;31439;53.512;10.206;2023-04-24T13:29:58;13.50;99.90
45729;DHT22;31439;53.512;10.206;2023-04-24T13:32:24;13.50;99.90
45729;DHT22;31439;53.512;10.206;2023-04-24T13:34:50;13.40;99.90
45729;DHT22;31439;53.512;10.206;2023-04-24T13:37:16;13.30;99.90
45729;DHT22;31439;53.512;10.206;2023-04-24T13:39:41;13.10;99.90
45729;DHT22;31439;53.512;10.206;2023-04-24T13:42:07;12.90;99.90
45729;DHT22;31439;53.512;10.206;2023-04-24T13:44:32;12.90;99.90
45729;DHT22;31439;53.512;10.206;2023-04-24T13:46:59;12.80;99.90
45729;DHT22;31439;53.512;10.206;2023-04-24T13:49:32;12.80;99.90
45729;DHT22;31439;53.512;10.206;2023-04-24T13:51:58;12.70;99.90
45729;DHT22;31439;53.512;10.206;2023-04-24T13:54:24;12.70;99.90
45729;DHT22;31439;53.512;10.206;2023-04-24T13:56:51;12.60;99.90
45729;DHT22;31439;53.512;10.206;2023-04-24T13:59:17;12.60;99.90
45729;DHT22;31439;53.512;10.206;2023-04-24T14:01:44;12.70;99.90
45729;DHT22;31439;53.512;10.206;2023-04-24T14:04:10;12.70;99.90
45729;DHT22;31439;53.512;10.206;2023-04-24T14:06:36;12.60;99.90
45729;DHT22;31439;53.512;10.206;2023-04-24T14:09:02;12.60;99.90
45729;DHT22;31439;53.512;10.206;2023-04-24T14:11:28;12.60;99.90
45729;DHT22;31439;53.512;10.206;2023-04-24T14:13:55;12.70;99.90
45729;DHT22;31439;53.512;10.206;2023-04-24T14:16:23;12.70;99.90
45729;DHT22;31439;53.512;10.206;2023-04-24T14:18:49;12.70;99.90
45729;DHT22;31439;53.512;10.206;2023-04-24T14:21:15;12.70;99.90
45729;DHT22;31439;53.512;10.206;2023-04-24T14:23:41;12.70;99.90
45729;DHT22;31439;53.512;10.206;2023-04-24T14:26:06;12.80;99.90
45729;DHT22;31439;53.512;10.206;2023-04-24T14:28:32;12.90;99.90
45729;DHT22;31439;53.512;10.206;2023-04-24T14:30:58;13.00;99.90
45729;DHT22;31439;53.512;10.206;2023-04-24T14:33:23;13.10;99.90
45729;DHT22;31439;53.512;10.206;2023-04-24T14:35:49;13.10;99.90
45729;DHT22;31439;53.512;10.206;2023-04-24T14:38:15;13.00;99.90
45729;DHT22;31439;53.512;10.206;2023-04-24T14:40:40;13.00;99.90
45729;DHT22;31439;53.512;10.206;2023-04-24T14:43:06;13.00;99.90
45729;DHT22;31439;53.512;10.206;2023-04-24T14:45:32;13.10;99.90
45729;DHT22;31439;53.512;10.206;2023-04-24T14:47:58;13.00;99.90
45729;DHT22;31439;53.512;10.206;2023-04-24T14:50:24;13.10;99.90
45729;DHT22;31439;53.512;10.206;2023-04-24T14:52:56;13.10;99.90
45729;DHT22;31439;53.512;10.206;2023-04-24T14:55:23;13.10;99.90
45729;DHT22;31439;53.512;10.206;2023-04-24T14:57:49;13.10;99.90
45729;DHT22;31439;53.512;10.206;2023-04-24T15:00:15;13.10;99.90
45729;DHT22;31439;53.512;10.206;2023-04-24T15:02:42;13.00;99.90
45729;DHT22;31439;53.512;10.206;2023-04-24T15:05:10;13.00;99.90
45729;DHT22;31439;53.512;10.206;2023-04-24T15:07:37;13.00;99.90
45729;DHT22;31439;53.512;10.206;2023-04-24T15:10:03;12.90;99.90
45729;DHT22;31439;53.512;10.206;2023-04-24T15:12:29;12.70;99.90
45729;DHT22;31439;53.512;10.206;2023-04-24T15:14:55;12.50;99.90
45729;DHT22;31439;53.512;10.206;2023-04-24T15:17:20;12.30;99.90
45729;DHT22;31439;53.512;10.206;2023-04-24T15:19:46;12.20;99.90
45729;DHT22;31439;53.512;10.206;2023-04-24T15:22:12;12.00;99.90
45729;DHT22;31439;53.512;10.206;2023-04-24T15:24:40;11.80;99.90